createdAt,value
2018-12-03T00:02:00.384Z,7.93
2018-12-03T00:04:27.863Z,6.43
2018-12-03T00:06:57.437Z,5.97
2018-12-03T00:09:24.913Z,4.80
2018-12-03T00:11:52.363Z,4.27
2018-12-03T00:14:20.334Z,4.30
2018-12-03T00:16:47.933Z,3.60
2018-12-03T00:19:19.034Z,3.70
2018-12-03T00:21:46.508Z,3.40
2018-12-03T00:24:15.878Z,3.20
2018-12-03T00:26:43.297Z,3.10
2018-12-03T00:29:10.782Z,3.43
2018-12-03T00:31:38.226Z,3.13
2018-12-03T00:34:06.485Z,3.10
2018-12-03T00:36:33.953Z,2.90
2018-12-03T00:39:01.382Z,2.60
2018-12-03T00:41:28.820Z,2.23
2018-12-03T00:43:56.277Z,1.70
2018-12-03T00:46:23.769Z,2.10
2018-12-03T00:48:52.111Z,1.90
2018-12-03T00:51:19.587Z,1.53
2018-12-03T00:53:47.171Z,1.80
2018-12-03T00:56:14.656Z,1.40
2018-12-03T00:58:42.100Z,1.30
2018-12-03T01:01:10.565Z,1.60
2018-12-03T01:03:38.280Z,1.67
2018-12-03T01:06:05.744Z,1.80
2018-12-03T01:08:34.590Z,2.10
2018-12-03T01:11:02.907Z,2.23
2018-12-03T01:13:32.080Z,2.50
2018-12-03T01:16:00.399Z,2.30
2018-12-03T01:18:27.911Z,2.47
2018-12-03T01:20:55.376Z,2.40
2018-12-03T01:23:22.868Z,2.20
2018-12-03T01:25:52.423Z,2.70
2018-12-03T01:28:21.657Z,2.90
2018-12-03T01:30:51.375Z,3.23
2018-12-03T01:33:18.873Z,3.90
2018-12-03T01:35:46.334Z,3.70
2018-12-03T01:38:13.762Z,3.87
2018-12-03T01:40:41.244Z,3.73
2018-12-03T01:43:08.683Z,4.03
2018-12-03T01:45:36.166Z,4.10
2018-12-03T01:48:03.615Z,3.27
2018-12-03T01:50:33.044Z,3.20
2018-12-03T01:53:00.494Z,2.93
2018-12-03T01:55:27.985Z,3.30
2018-12-03T01:57:55.624Z,3.23
2018-12-03T02:00:27.068Z,3.23
2018-12-03T02:02:54.581Z,2.53
2018-12-03T02:05:22.630Z,3.13
2018-12-03T02:07:52.756Z,3.23
2018-12-03T02:10:20.926Z,3.17
2018-12-03T02:12:48.421Z,3.20
2018-12-03T02:15:15.841Z,3.07
2018-12-03T02:17:47.928Z,2.90
2018-12-03T02:20:16.818Z,3.50
2018-12-03T02:22:48.064Z,2.70
2018-12-03T02:25:15.736Z,3.20
2018-12-03T02:27:43.210Z,2.90
2018-12-03T02:30:10.732Z,3.20
2018-12-03T02:32:38.150Z,2.97
2018-12-03T02:35:08.554Z,3.20
2018-12-03T02:37:39.425Z,3.53
2018-12-03T02:40:07.054Z,3.30
2018-12-03T02:42:36.403Z,3.73
2018-12-03T02:45:03.875Z,3.60
2018-12-03T02:47:31.321Z,3.90
2018-12-03T02:50:00.179Z,4.37
2018-12-03T02:52:28.524Z,3.80
2018-12-03T02:54:55.968Z,3.87
2018-12-03T02:57:23.434Z,4.00
2018-12-03T02:59:51.343Z,3.80
2018-12-03T03:02:18.838Z,3.93
2018-12-03T03:04:46.287Z,3.93
2018-12-03T03:07:13.756Z,4.00
2018-12-03T03:09:41.207Z,3.80
2018-12-03T03:12:09.835Z,4.80
2018-12-03T03:14:38.266Z,4.70
2018-12-03T03:17:07.776Z,4.70
2018-12-03T03:36:43.676Z,4.00
2018-12-03T03:39:12.818Z,4.37
2018-12-03T03:41:42.285Z,4.80
2018-12-03T03:44:09.808Z,4.13
2018-12-03T03:46:38.243Z,5.00
2018-12-03T03:49:05.736Z,5.00
2018-12-03T03:51:33.702Z,5.40
2018-12-03T03:54:01.225Z,5.73
2018-12-03T03:56:28.738Z,4.90
2018-12-03T03:58:59.895Z,5.00
2018-12-03T04:01:27.409Z,4.50
2018-12-03T04:03:55.003Z,4.23
2018-12-03T04:06:22.848Z,4.53
2018-12-03T04:08:50.567Z,4.50
2018-12-03T04:11:18.900Z,4.67
2018-12-03T04:13:46.987Z,3.77
2018-12-03T04:16:14.486Z,3.90
2018-12-03T04:18:44.719Z,3.60
2018-12-03T04:21:12.306Z,3.50
2018-12-03T04:23:39.938Z,3.50
2018-12-03T04:26:07.441Z,3.20
2018-12-03T04:28:34.979Z,4.00
2018-12-03T04:31:02.525Z,4.10
2018-12-03T04:33:32.236Z,4.70
2018-12-03T04:36:00.685Z,5.27
2018-12-03T04:38:28.307Z,5.07
2018-12-03T04:40:55.782Z,4.17
2018-12-03T04:43:24.128Z,4.57
2018-12-03T04:45:52.268Z,3.80
2018-12-03T04:48:19.742Z,3.50
2018-12-03T04:50:47.349Z,3.30
2018-12-03T04:53:17.602Z,3.17
2018-12-03T04:55:45.783Z,2.80
2018-12-03T04:58:16.794Z,2.70
2018-12-03T05:00:44.404Z,2.70
2018-12-03T05:03:11.910Z,2.83
2018-12-03T05:05:39.383Z,2.40
2018-12-03T05:08:06.836Z,3.00
2018-12-03T05:10:34.282Z,2.23
2018-12-03T05:13:02.208Z,2.27
2018-12-03T05:15:29.702Z,2.00
2018-12-03T05:17:57.153Z,2.47
2018-12-03T05:20:24.618Z,2.20
2018-12-03T05:22:52.073Z,2.37
2018-12-03T05:25:19.797Z,2.20
2018-12-03T05:27:46.963Z,2.47
2018-12-03T05:30:15.201Z,2.40
2018-12-03T05:32:42.669Z,2.43
2018-12-03T05:35:10.100Z,2.60
2018-12-03T05:37:37.535Z,2.27
2018-12-03T05:40:05.489Z,2.60
2018-12-03T05:42:33.359Z,2.30
2018-12-03T05:45:02.727Z,2.20
2018-12-03T05:47:33.374Z,2.20
2018-12-03T05:50:01.622Z,2.30
2018-12-03T05:52:31.975Z,2.20
2018-12-03T05:55:00.853Z,1.90
2018-12-03T05:57:28.890Z,2.10
2018-12-03T05:59:56.350Z,1.93
2018-12-03T06:02:24.405Z,2.30
2018-12-03T06:04:52.691Z,2.27
2018-12-03T06:07:20.454Z,1.97
2018-12-03T06:09:48.358Z,1.70
2018-12-03T06:12:16.216Z,2.10
2018-12-03T06:14:43.644Z,2.23
2018-12-03T06:17:11.119Z,2.20
2018-12-03T06:19:38.565Z,2.30
2018-12-03T06:22:06.003Z,2.23
2018-12-03T06:24:35.353Z,2.43
2018-12-03T06:27:03.444Z,2.07
2018-12-03T06:29:31.883Z,2.43
2018-12-03T06:32:00.035Z,2.50
2018-12-03T06:34:27.482Z,2.00
2018-12-03T06:36:54.908Z,1.90
2018-12-03T06:39:22.391Z,2.20
2018-12-03T06:41:49.840Z,1.73
2018-12-03T06:44:17.256Z,2.10
2018-12-03T06:46:45.442Z,2.10
2018-12-03T06:49:13.008Z,2.33
2018-12-03T06:51:40.424Z,2.47
2018-12-03T06:54:07.906Z,2.20
2018-12-03T06:56:35.338Z,2.63
2018-12-03T06:59:04.333Z,2.27
2018-12-03T07:01:31.790Z,2.60
2018-12-03T07:03:59.218Z,2.30
2018-12-03T07:06:26.813Z,2.20
2018-12-03T07:08:55.458Z,2.50
2018-12-03T07:11:22.940Z,2.60
2018-12-03T07:13:51.197Z,2.60
2018-12-03T07:16:18.659Z,2.70
2018-12-03T07:18:46.142Z,2.97
2018-12-03T07:21:13.861Z,2.70
2018-12-03T07:23:41.318Z,2.67
2018-12-03T07:26:09.694Z,2.70
2018-12-03T07:28:37.424Z,2.70
2018-12-03T07:31:04.938Z,2.93
2018-12-03T07:33:32.439Z,2.60
2018-12-03T07:35:59.893Z,2.67
2018-12-03T07:38:27.341Z,3.20
2018-12-03T07:40:54.795Z,2.73
2018-12-03T07:43:22.225Z,2.70
2018-12-03T07:45:50.629Z,2.43
2018-12-03T07:48:18.162Z,2.40
2018-12-03T07:50:45.621Z,2.73
2018-12-03T07:53:13.708Z,2.50
2018-12-03T07:55:41.220Z,2.70
2018-12-03T07:58:08.670Z,3.40
2018-12-03T08:00:36.109Z,2.90
2018-12-03T08:03:04.768Z,2.93
2018-12-03T08:05:33.356Z,2.80
2018-12-03T08:08:00.814Z,2.93
2018-12-03T08:10:28.284Z,2.50
2018-12-03T08:12:55.740Z,3.40
2018-12-03T08:15:23.233Z,2.77
2018-12-03T08:17:51.047Z,2.67
2018-12-03T08:20:21.446Z,3.30
2018-12-03T08:22:48.951Z,3.00
2018-12-03T08:25:17.132Z,2.80
2018-12-03T08:27:44.602Z,2.60
2018-12-03T08:30:12.392Z,3.13
2018-12-03T08:32:39.863Z,3.20
2018-12-03T08:35:07.994Z,3.17
2018-12-03T08:37:35.506Z,3.00
2018-12-03T08:40:04.581Z,3.00
2018-12-03T08:42:32.280Z,3.10
2018-12-03T08:44:59.996Z,2.83
2018-12-03T08:47:27.426Z,2.90
2018-12-03T08:49:54.868Z,2.90
2018-12-03T08:52:22.337Z,3.40
2018-12-03T08:54:50.216Z,3.20
2018-12-03T08:57:20.813Z,3.63
2018-12-03T08:59:48.309Z,3.07
2018-12-03T09:02:16.762Z,3.87
2018-12-03T09:04:44.732Z,3.47
2018-12-03T09:07:13.922Z,3.07
2018-12-03T09:09:41.398Z,3.43
2018-12-03T09:12:12.545Z,3.43
2018-12-03T09:14:40.002Z,3.60
2018-12-03T09:17:07.454Z,3.63
2018-12-03T09:19:36.467Z,3.90
2018-12-03T09:22:04.833Z,3.57
2018-12-03T09:24:32.274Z,3.40
2018-12-03T09:26:59.726Z,3.20
2018-12-03T09:29:28.183Z,4.00
2018-12-03T09:31:55.737Z,3.57
2018-12-03T09:34:23.197Z,4.07
2018-12-03T09:36:50.669Z,3.83
2018-12-03T09:39:18.254Z,3.87
2018-12-03T09:41:47.150Z,3.20
2018-12-03T09:44:15.671Z,3.37
2018-12-03T09:46:43.353Z,4.33
2018-12-03T09:49:10.827Z,4.00
2018-12-03T09:51:39.375Z,3.63
2018-12-03T09:54:07.583Z,3.43
2018-12-03T09:56:36.975Z,3.53
2018-12-03T09:59:04.810Z,3.20
2018-12-03T10:01:32.281Z,3.90
2018-12-03T10:03:59.840Z,3.83
2018-12-03T10:06:27.288Z,3.67
2018-12-03T10:08:54.705Z,3.70
2018-12-03T10:11:22.190Z,3.90
2018-12-03T10:13:49.649Z,3.93
2018-12-03T10:16:23.374Z,3.77
2018-12-03T10:18:53.937Z,3.57
2018-12-03T10:21:24.562Z,3.20
2018-12-03T10:23:58.474Z,3.60
2018-12-03T10:26:26.232Z,3.37
2018-12-03T10:28:53.690Z,3.50
2018-12-03T10:31:22.760Z,3.53
2018-12-03T10:33:50.201Z,3.43
2018-12-03T10:36:20.365Z,3.90
2018-12-03T10:38:48.937Z,3.77
2018-12-03T10:41:16.394Z,3.00
2018-12-03T10:43:43.853Z,3.67
2018-12-03T10:46:11.287Z,3.13
2018-12-03T10:48:38.730Z,3.10
2018-12-03T10:51:06.201Z,3.80
2018-12-03T10:53:33.702Z,4.23
2018-12-03T10:56:01.149Z,3.67
2018-12-03T10:58:30.863Z,3.97
2018-12-03T11:01:07.110Z,3.43
2018-12-03T11:06:23.547Z,3.43
2018-12-03T11:08:51.023Z,3.03
2018-12-03T11:11:21.707Z,3.60
2018-12-03T11:13:49.170Z,3.40
2018-12-03T11:16:18.419Z,3.93
2018-12-03T11:18:45.862Z,3.27
2018-12-03T11:21:13.310Z,3.30
2018-12-03T11:23:40.788Z,3.37
2018-12-03T11:26:09.482Z,3.83
2018-12-03T11:28:36.966Z,4.60
2018-12-03T11:31:04.404Z,3.43
2018-12-03T11:33:32.065Z,4.40
2018-12-03T11:36:00.394Z,3.60
2018-12-03T11:38:28.002Z,3.93
2018-12-03T11:40:55.653Z,3.80
2018-12-03T11:43:23.114Z,4.13
2018-12-03T11:45:50.577Z,3.77
2018-12-03T11:48:18.012Z,3.57
2018-12-03T11:50:48.746Z,3.60
2018-12-03T11:53:16.222Z,3.67
2018-12-03T11:55:43.747Z,3.40
2018-12-03T11:58:11.296Z,3.53
2018-12-03T12:00:38.755Z,3.50
2018-12-03T12:03:06.209Z,2.93
2018-12-03T12:05:34.613Z,4.90
2018-12-03T12:08:02.076Z,3.50
2018-12-03T12:10:30.624Z,3.50
2018-12-03T12:12:58.203Z,3.83
2018-12-03T12:15:25.642Z,3.20
2018-12-03T12:17:53.144Z,3.50
2018-12-03T12:20:23.368Z,4.43
2018-12-03T12:22:57.063Z,3.73
2018-12-03T12:25:24.501Z,3.80
2018-12-03T12:27:51.943Z,3.43
2018-12-03T12:30:19.414Z,3.87
2018-12-03T12:32:46.862Z,3.80
2018-12-03T12:35:14.302Z,3.83
2018-12-03T12:37:41.746Z,3.63
2018-12-03T12:40:09.218Z,4.00
2018-12-03T12:42:36.716Z,3.83
2018-12-03T12:45:04.132Z,3.53
2018-12-03T12:47:32.456Z,3.70
2018-12-03T12:49:59.923Z,3.43
2018-12-03T12:52:27.356Z,3.87
2018-12-03T12:54:54.817Z,3.40
2018-12-03T12:57:23.356Z,2.87
2018-12-03T12:59:50.828Z,3.33
2018-12-03T13:02:18.281Z,3.63
2018-12-03T13:04:45.827Z,3.50
2018-12-03T13:07:13.323Z,3.37
2018-12-03T13:09:42.161Z,3.30
2018-12-03T13:12:09.637Z,3.80
2018-12-03T13:14:41.147Z,2.70
2018-12-03T13:17:08.614Z,3.67
2018-12-03T13:19:36.050Z,3.30
2018-12-03T13:22:06.094Z,3.30
2018-12-03T13:24:33.579Z,3.20
2018-12-03T13:27:01.009Z,3.43
2018-12-03T13:29:28.468Z,3.10
2018-12-03T13:31:56.814Z,3.33
2018-12-03T13:34:24.320Z,2.90
2018-12-03T13:36:51.813Z,3.30
2018-12-03T13:39:23.186Z,2.87
2018-12-03T13:41:46.973Z,2.50
2018-12-03T13:44:14.449Z,3.17
2018-12-03T13:46:42.332Z,3.33
2018-12-03T13:49:09.907Z,3.63
2018-12-03T13:51:37.378Z,3.73
2018-12-03T13:54:05.521Z,3.57
2018-12-03T13:56:33.646Z,3.70
2018-12-03T13:59:01.122Z,3.60
2018-12-03T14:01:28.593Z,3.00
2018-12-03T14:03:56.077Z,3.07
2018-12-03T14:06:25.915Z,3.37
2018-12-03T14:08:54.720Z,3.20
2018-12-03T14:11:22.243Z,2.90
2018-12-03T14:13:49.800Z,3.10
2018-12-03T14:16:18.147Z,3.00
2018-12-03T14:18:45.721Z,3.07
2018-12-03T14:21:19.013Z,3.37
2018-12-03T14:23:49.352Z,2.93
2018-12-03T14:26:17.601Z,2.97
2018-12-03T14:33:00.642Z,3.30
2018-12-03T14:36:00.725Z,3.23
2018-12-03T14:38:59.364Z,3.07
2018-12-03T14:41:57.506Z,3.27
2018-12-03T14:45:00.593Z,3.90
2018-12-03T14:47:28.187Z,3.17
2018-12-03T14:49:55.752Z,3.83
2018-12-03T14:52:24.665Z,3.70
2018-12-03T14:58:16.206Z,3.47
2018-12-03T15:00:43.615Z,3.30
2018-12-03T15:03:11.082Z,2.60
2018-12-03T15:05:38.513Z,3.27
2018-12-03T15:08:05.966Z,2.70
2018-12-03T15:10:33.427Z,3.30
2018-12-03T15:13:00.870Z,3.30
2018-12-03T15:15:31.494Z,3.07
2018-12-03T15:17:59.033Z,3.67
2018-12-03T15:20:26.469Z,4.03
2018-12-03T15:22:53.931Z,3.80
2018-12-03T15:25:21.427Z,4.13
2018-12-03T15:27:48.892Z,4.10
2018-12-03T15:30:16.317Z,4.07
2018-12-03T15:32:43.796Z,3.70
2018-12-03T15:35:11.215Z,4.00
2018-12-03T15:37:39.791Z,4.10
2018-12-03T15:40:07.243Z,4.97
2018-12-03T15:42:34.746Z,3.90
2018-12-03T15:45:02.177Z,4.77
2018-12-03T15:47:29.623Z,6.77
2018-12-03T15:49:57.068Z,4.37
2018-12-03T15:52:24.499Z,6.00
2018-12-03T15:54:51.943Z,3.53
2018-12-03T15:57:19.379Z,3.93
2018-12-03T15:59:46.833Z,4.63
2018-12-03T16:02:14.272Z,5.20
2018-12-03T16:04:41.720Z,3.90
2018-12-03T16:07:09.145Z,5.10
2018-12-03T16:09:36.656Z,6.07
2018-12-03T16:12:04.110Z,7.13
2018-12-03T16:14:31.560Z,4.70
2018-12-03T16:16:58.990Z,3.90
2018-12-03T16:19:26.525Z,6.57
2018-12-03T16:21:53.971Z,5.20
2018-12-03T16:24:21.408Z,3.97
2018-12-03T16:26:48.854Z,5.30
2018-12-03T16:29:16.287Z,3.90
2018-12-03T16:31:43.767Z,4.30
2018-12-03T16:34:11.224Z,5.07
2018-12-03T16:36:38.673Z,3.70
2018-12-03T16:39:06.527Z,3.57
2018-12-03T16:41:33.980Z,3.33
2018-12-03T16:44:01.410Z,3.00
2018-12-03T16:46:28.875Z,4.17
2018-12-03T16:48:56.302Z,3.70
2018-12-03T16:51:23.759Z,3.53
2018-12-03T16:53:51.194Z,3.30
2018-12-03T16:56:18.682Z,3.23
2018-12-03T16:58:46.103Z,2.30
2018-12-03T17:01:13.536Z,3.43
2018-12-03T17:03:40.972Z,2.47
2018-12-03T17:06:09.460Z,2.43
2018-12-03T17:08:36.995Z,2.20
2018-12-03T17:11:04.437Z,2.60
2018-12-03T17:13:31.889Z,2.30
2018-12-03T17:15:59.323Z,1.90
2018-12-03T17:18:26.772Z,2.13
2018-12-03T17:20:54.245Z,2.30
2018-12-03T17:23:21.697Z,2.20
2018-12-03T17:25:49.114Z,1.80
2018-12-03T17:28:17.496Z,2.20
2018-12-03T17:30:45.039Z,2.03
2018-12-03T17:33:12.488Z,2.43
2018-12-03T17:35:39.953Z,2.77
2018-12-03T17:38:07.424Z,3.13
2018-12-03T17:40:34.879Z,2.30
2018-12-03T17:43:02.391Z,2.73
2018-12-03T17:45:29.844Z,3.83
2018-12-03T17:47:57.290Z,2.13
2018-12-03T17:50:25.171Z,2.70
2018-12-03T17:52:52.641Z,3.10
2018-12-03T17:55:20.086Z,2.30
2018-12-03T17:57:48.552Z,2.80
2018-12-03T18:00:16.020Z,2.77
2018-12-03T18:02:43.469Z,2.73
2018-12-03T18:05:10.937Z,3.30
2018-12-03T18:07:38.364Z,2.93
2018-12-03T18:10:05.838Z,5.07
2018-12-03T18:12:33.324Z,4.00
2018-12-03T18:15:00.759Z,3.80
2018-12-03T18:17:28.229Z,3.60
2018-12-03T18:19:55.683Z,3.63
2018-12-03T18:22:23.105Z,3.30
2018-12-03T18:24:50.545Z,3.63
2018-12-03T18:27:17.991Z,4.57
2018-12-03T18:29:45.494Z,3.70
2018-12-03T18:32:12.968Z,4.43
2018-12-03T18:34:40.411Z,4.17
2018-12-03T18:37:07.866Z,3.73
2018-12-03T18:39:35.304Z,3.80
2018-12-03T18:42:02.789Z,4.10
2018-12-03T18:44:30.225Z,3.80
2018-12-03T18:47:02.943Z,4.13
2018-12-03T18:49:30.376Z,4.30
2018-12-03T18:51:57.811Z,3.80
2018-12-03T18:54:25.241Z,3.73
2018-12-03T18:56:52.729Z,4.43
2018-12-03T18:59:20.207Z,4.67
2018-12-03T19:01:47.680Z,4.67
2018-12-03T19:04:15.281Z,4.90
2018-12-03T19:06:42.766Z,4.47
2018-12-03T19:09:10.223Z,4.43
2018-12-03T19:11:37.702Z,3.93
2018-12-03T19:14:05.161Z,4.23
2018-12-03T19:16:32.609Z,4.17
2018-12-03T19:19:00.076Z,4.27
2018-12-03T19:21:27.516Z,3.93
2018-12-03T19:23:55.283Z,4.23
2018-12-03T19:26:22.712Z,4.07
2018-12-03T19:28:50.195Z,4.03
2018-12-03T19:31:17.658Z,4.10
2018-12-03T19:33:45.097Z,4.13
2018-12-03T19:36:12.558Z,4.90
2018-12-03T19:38:40.000Z,4.43
2018-12-03T19:41:07.451Z,4.77
2018-12-03T19:43:34.875Z,4.67
2018-12-03T19:46:02.316Z,5.23
2018-12-03T19:48:29.777Z,4.37
2018-12-03T19:50:57.207Z,5.47
2018-12-03T19:53:24.672Z,4.97
2018-12-03T19:55:52.104Z,4.17
2018-12-03T19:58:19.556Z,4.70
2018-12-03T20:00:46.991Z,4.50
2018-12-03T20:03:14.448Z,4.27
2018-12-03T20:05:41.875Z,4.57
2018-12-03T20:08:09.438Z,4.00
2018-12-03T20:10:36.863Z,4.50
2018-12-03T20:13:04.321Z,5.60
2018-12-03T20:15:31.795Z,4.37
2018-12-03T20:17:59.262Z,4.37
2018-12-03T20:20:26.734Z,4.53
2018-12-03T20:22:54.198Z,4.63
2018-12-03T20:25:21.660Z,3.90
2018-12-03T20:27:49.116Z,5.17
2018-12-03T20:30:16.638Z,4.63
2018-12-03T20:32:44.082Z,5.37
2018-12-03T20:35:11.588Z,4.20
2018-12-03T20:37:39.041Z,4.20
2018-12-03T20:40:07.299Z,4.30
2018-12-03T20:42:34.756Z,3.70
2018-12-03T20:45:02.193Z,4.80
2018-12-03T20:47:29.661Z,4.80
2018-12-03T20:49:57.118Z,4.47
2018-12-03T20:52:24.588Z,4.97
2018-12-03T20:54:52.022Z,4.77
2018-12-03T20:57:19.477Z,4.13
2018-12-03T20:59:46.901Z,4.57
2018-12-03T21:02:14.388Z,4.97
2018-12-03T21:04:41.854Z,5.50
2018-12-03T21:07:09.321Z,5.30
2018-12-03T21:09:37.881Z,5.37
2018-12-03T21:12:05.304Z,5.20
2018-12-03T21:14:32.755Z,4.77
2018-12-03T21:17:00.183Z,5.13
2018-12-03T21:19:27.650Z,5.60
2018-12-03T21:21:55.099Z,6.40
2018-12-03T21:24:22.546Z,6.47
2018-12-03T21:26:50.008Z,6.40
2018-12-03T21:29:17.473Z,7.47
2018-12-03T21:31:44.940Z,6.30
2018-12-03T21:34:12.389Z,5.97
2018-12-03T21:36:39.855Z,7.10
2018-12-03T21:39:08.470Z,5.27
2018-12-03T21:41:35.935Z,6.07
2018-12-03T21:44:03.375Z,5.30
2018-12-03T21:46:30.890Z,5.40
2018-12-03T21:48:58.333Z,4.47
2018-12-03T21:51:25.775Z,4.70
2018-12-03T21:53:53.279Z,4.33
2018-12-03T21:56:20.739Z,4.20
2018-12-03T21:58:48.179Z,4.43
2018-12-03T22:01:15.633Z,4.00
2018-12-03T22:03:43.077Z,4.70
2018-12-03T22:06:10.541Z,5.27
2018-12-03T22:08:38.007Z,5.33
2018-12-03T22:11:08.454Z,5.40
2018-12-03T22:13:36.046Z,5.00
2018-12-03T22:16:03.483Z,6.00
2018-12-03T22:18:30.935Z,5.60
2018-12-03T22:20:58.409Z,5.17
2018-12-03T22:23:25.894Z,7.00
2018-12-03T22:25:53.339Z,6.37
2018-12-03T22:28:20.799Z,6.67
2018-12-03T22:30:48.261Z,8.03
2018-12-03T22:33:15.754Z,8.40
2018-12-03T22:35:43.208Z,8.23
2018-12-03T22:38:10.658Z,8.30
2018-12-03T22:40:38.104Z,8.10
2018-12-03T22:43:05.550Z,8.10
2018-12-03T22:45:33.083Z,7.77
2018-12-03T22:48:00.553Z,7.67
2018-12-03T22:50:28.021Z,7.47
2018-12-03T22:52:55.445Z,8.27
2018-12-03T22:55:22.927Z,8.50
2018-12-03T22:57:50.375Z,9.00
2018-12-03T23:00:33.457Z,7.33
2018-12-03T23:03:02.091Z,7.40
2018-12-03T23:05:29.565Z,7.77
2018-12-03T23:07:57.080Z,6.73
2018-12-03T23:10:24.602Z,8.00
2018-12-03T23:12:52.069Z,7.60
2018-12-03T23:15:19.513Z,8.03
2018-12-03T23:17:46.982Z,8.70
2018-12-03T23:20:14.407Z,8.50
2018-12-03T23:22:41.856Z,9.80
2018-12-03T23:25:09.330Z,9.00
2018-12-03T23:27:36.759Z,9.70
2018-12-03T23:30:04.242Z,10.97
2018-12-03T23:32:31.779Z,12.03
2018-12-03T23:34:59.274Z,11.70
2018-12-03T23:37:26.777Z,11.50
2018-12-03T23:39:54.278Z,11.07
2018-12-03T23:42:21.730Z,12.57
2018-12-03T23:44:49.187Z,10.90
2018-12-03T23:47:16.627Z,9.17
2018-12-03T23:49:44.085Z,11.67
2018-12-03T23:52:11.531Z,8.40
2018-12-03T23:54:39.005Z,8.60
2018-12-03T23:57:06.444Z,6.83
2018-12-03T23:59:33.908Z,6.10
